createdAt,value
2019-02-05T00:00:36.759Z,85.70
2019-02-05T00:03:10.031Z,85.60
2019-02-05T00:05:54.963Z,85.60
2019-02-05T00:08:21.360Z,85.60
2019-02-05T00:10:47.927Z,85.60
2019-02-05T00:13:14.667Z,85.50
2019-02-05T00:15:41.291Z,85.60
2019-02-05T00:18:10.614Z,85.60
2019-02-05T00:20:39.846Z,85.60
2019-02-05T00:23:08.884Z,85.70
2019-02-05T00:25:35.150Z,85.70
2019-02-05T00:28:01.426Z,85.80
2019-02-05T00:30:27.922Z,85.80
2019-02-05T00:32:54.289Z,85.70
2019-02-05T00:35:21.052Z,85.80
2019-02-05T00:37:49.973Z,85.80
2019-02-05T00:40:16.560Z,85.70
2019-02-05T00:42:42.838Z,85.90
2019-02-05T00:45:12.248Z,85.80
2019-02-05T00:47:38.965Z,85.90
2019-02-05T00:50:10.230Z,85.90
2019-02-05T00:52:39.133Z,85.90
2019-02-05T00:55:11.544Z,86.00
2019-02-05T00:57:40.549Z,86.00
2019-02-05T01:00:30.930Z,86.10
2019-02-05T01:03:15.994Z,86.00
2019-02-05T01:05:42.460Z,85.80
2019-02-05T01:08:11.305Z,86.20
2019-02-05T01:10:37.915Z,86.30
2019-02-05T01:13:07.144Z,86.30
2019-02-05T01:15:33.452Z,86.60
2019-02-05T01:17:59.938Z,86.90
2019-02-05T01:20:28.838Z,87.80
2019-02-05T01:22:55.098Z,87.40
2019-02-05T01:25:21.586Z,88.30
2019-02-05T01:27:48.378Z,87.60
2019-02-05T01:30:20.412Z,87.60
2019-02-05T01:32:46.798Z,87.60
2019-02-05T01:35:13.123Z,87.60
2019-02-05T01:37:39.429Z,87.70
2019-02-05T01:40:09.481Z,87.80
2019-02-05T01:42:35.798Z,87.70
2019-02-05T01:45:04.491Z,87.80
2019-02-05T01:47:30.961Z,88.00
2019-02-05T01:50:00.194Z,88.00
2019-02-05T01:52:29.410Z,88.00
2019-02-05T01:54:55.792Z,88.10
2019-02-05T01:57:24.974Z,88.20
2019-02-05T01:59:51.679Z,88.20
2019-02-05T02:02:17.976Z,88.20
2019-02-05T02:04:44.272Z,88.30
2019-02-05T02:07:11.088Z,88.40
2019-02-05T02:09:56.120Z,88.50
2019-02-05T02:12:22.423Z,88.30
2019-02-05T02:14:49.219Z,88.30
2019-02-05T02:17:15.642Z,88.40
2019-02-05T02:19:41.950Z,88.50
2019-02-05T02:22:08.405Z,88.60
2019-02-05T02:24:34.669Z,88.40
2019-02-05T02:27:00.991Z,88.50
2019-02-05T02:29:29.942Z,88.50
2019-02-05T02:31:56.220Z,88.50
2019-02-05T02:34:25.826Z,88.60
2019-02-05T02:36:52.213Z,88.80
2019-02-05T02:39:21.196Z,88.80
2019-02-05T02:41:47.826Z,89.00
2019-02-05T02:44:14.196Z,89.20
2019-02-05T02:46:40.466Z,89.40
2019-02-05T02:49:06.877Z,89.60
2019-02-05T02:51:33.237Z,89.70
2019-02-05T02:53:59.648Z,89.70
2019-02-05T02:56:28.823Z,89.70
2019-02-05T02:58:55.416Z,89.70
2019-02-05T03:01:21.815Z,89.50
2019-02-05T03:03:48.084Z,89.40
2019-02-05T03:06:14.431Z,89.50
2019-02-05T03:08:40.798Z,89.50
2019-02-05T03:11:07.216Z,89.50
2019-02-05T03:13:33.882Z,89.60
2019-02-05T03:16:00.179Z,89.70
2019-02-05T03:18:26.558Z,89.70
2019-02-05T03:20:56.508Z,89.60
2019-02-05T03:23:22.901Z,89.60
2019-02-05T03:25:52.174Z,89.70
2019-02-05T03:28:21.288Z,89.90
2019-02-05T03:30:47.693Z,89.80
2019-02-05T03:33:26.347Z,89.70
2019-02-05T03:35:52.690Z,89.80
2019-02-05T03:38:19.133Z,90.00
2019-02-05T03:40:58.315Z,90.00
2019-02-05T03:43:27.751Z,90.00
2019-02-05T03:45:55.863Z,90.00
2019-02-05T03:48:25.764Z,90.00
2019-02-05T03:50:55.954Z,90.00
2019-02-05T03:53:37.855Z,90.00
2019-02-05T03:56:13.544Z,90.00
2019-02-05T03:58:46.505Z,90.00
2019-02-05T04:01:22.370Z,90.00
2019-02-05T04:04:10.905Z,90.30
2019-02-05T04:07:02.728Z,89.70
2019-02-05T04:09:57.706Z,90.00
2019-02-05T04:12:47.813Z,90.00
2019-02-05T04:15:21.101Z,90.00
2019-02-05T04:18:06.266Z,90.10
2019-02-05T04:21:11.853Z,90.10
2019-02-05T04:24:14.054Z,90.10
2019-02-05T04:26:50.003Z,90.00
2019-02-05T04:29:40.836Z,90.10
2019-02-05T04:32:17.254Z,90.10
2019-02-05T04:34:59.255Z,90.10
2019-02-05T04:38:07.481Z,90.20
2019-02-05T04:40:43.555Z,90.30
2019-02-05T04:43:25.744Z,90.30
2019-02-05T04:46:20.810Z,90.20
2019-02-05T04:49:11.859Z,90.20
2019-02-05T04:51:45.122Z,90.20
2019-02-05T04:54:24.171Z,90.10
2019-02-05T04:57:19.708Z,90.20
2019-02-05T04:59:55.715Z,90.20
2019-02-05T05:02:57.010Z,90.30
2019-02-05T05:05:50.937Z,90.30
2019-02-05T05:08:26.475Z,90.30
2019-02-05T05:11:11.526Z,90.50
2019-02-05T05:13:37.812Z,90.40
2019-02-05T05:16:04.398Z,90.40
2019-02-05T05:18:33.507Z,90.40
2019-02-05T05:21:03.042Z,90.50
2019-02-05T05:23:29.563Z,90.40
2019-02-05T05:25:55.970Z,90.50
2019-02-05T05:28:22.446Z,90.50
2019-02-05T05:31:07.435Z,90.50
2019-02-05T05:33:33.897Z,90.60
2019-02-05T05:36:00.305Z,90.50
2019-02-05T05:38:26.723Z,90.60
2019-02-05T05:40:53.144Z,90.70
2019-02-05T05:43:19.482Z,90.70
2019-02-05T05:45:45.759Z,90.60
2019-02-05T05:48:12.377Z,90.60
2019-02-05T05:50:38.706Z,90.60
2019-02-05T05:53:05.147Z,90.60
2019-02-05T05:55:34.101Z,90.50
2019-02-05T05:58:00.391Z,90.60
2019-02-05T06:00:26.683Z,90.60
2019-02-05T06:02:52.991Z,90.70
2019-02-05T06:05:38.024Z,90.70
2019-02-05T06:08:07.284Z,90.70
2019-02-05T06:10:52.349Z,90.70
2019-02-05T06:13:18.698Z,90.70
2019-02-05T06:15:47.939Z,90.70
2019-02-05T06:18:14.654Z,90.60
2019-02-05T06:20:41.022Z,90.60
2019-02-05T06:23:07.416Z,90.60
2019-02-05T06:25:33.963Z,90.60
2019-02-05T06:28:03.325Z,90.60
2019-02-05T06:30:32.191Z,90.70
2019-02-05T06:32:58.481Z,90.70
2019-02-05T06:35:43.566Z,90.60
2019-02-05T06:38:09.879Z,90.60
2019-02-05T06:40:38.983Z,90.60
2019-02-05T06:43:05.373Z,90.60
2019-02-05T06:45:34.630Z,90.60
2019-02-05T06:48:00.966Z,90.60
2019-02-05T06:50:27.283Z,90.60
2019-02-05T06:52:56.637Z,90.60
2019-02-05T06:55:41.543Z,90.50
2019-02-05T06:58:07.955Z,90.50
2019-02-05T07:00:34.227Z,90.50
2019-02-05T07:03:19.526Z,90.50
2019-02-05T07:05:48.620Z,90.50
2019-02-05T07:08:17.658Z,90.60
2019-02-05T07:10:44.959Z,90.60
2019-02-05T07:13:11.365Z,90.60
2019-02-05T07:15:37.675Z,90.60
2019-02-05T07:18:22.545Z,90.60
2019-02-05T07:20:48.918Z,90.60
2019-02-05T07:23:15.438Z,90.60
2019-02-05T07:26:00.378Z,90.60
2019-02-05T07:28:26.661Z,90.50
2019-02-05T07:30:53.290Z,90.50
2019-02-05T07:33:35.135Z,90.50
2019-02-05T07:36:01.546Z,90.40
2019-02-05T07:38:27.975Z,90.50
2019-02-05T07:40:54.460Z,90.50
2019-02-05T07:43:21.106Z,90.40
2019-02-05T07:45:50.107Z,90.50
2019-02-05T07:48:19.278Z,90.60
2019-02-05T07:50:48.429Z,90.60
2019-02-05T07:53:14.965Z,90.50
2019-02-05T07:55:43.909Z,90.50
2019-02-05T07:58:12.976Z,90.50
2019-02-05T08:00:42.147Z,90.50
2019-02-05T08:03:11.497Z,90.50
2019-02-05T08:05:56.441Z,90.50
2019-02-05T08:08:25.497Z,90.40
2019-02-05T08:11:11.342Z,90.50
2019-02-05T08:13:37.801Z,90.60
2019-02-05T08:16:07.000Z,90.50
2019-02-05T08:18:35.938Z,90.50
2019-02-05T08:21:03.145Z,90.40
2019-02-05T08:23:29.473Z,90.40
2019-02-05T08:25:55.767Z,90.50
2019-02-05T08:28:22.156Z,90.50
2019-02-05T08:30:48.542Z,90.50
2019-02-05T08:33:15.201Z,90.50
2019-02-05T08:35:50.933Z,90.40
2019-02-05T08:38:17.441Z,90.40
2019-02-05T08:41:03.075Z,90.50
2019-02-05T08:43:47.702Z,90.50
2019-02-05T08:46:13.993Z,90.50
2019-02-05T08:48:43.529Z,90.50
2019-02-05T08:51:10.105Z,90.50
2019-02-05T08:53:55.084Z,90.50
2019-02-05T08:56:21.613Z,90.50
2019-02-05T08:58:50.616Z,90.40
2019-02-05T09:01:17.261Z,90.40
2019-02-05T09:03:46.535Z,90.40
2019-02-05T09:06:31.753Z,90.30
2019-02-05T09:09:00.911Z,90.40
2019-02-05T09:11:27.317Z,90.50
2019-02-05T09:13:53.767Z,90.40
2019-02-05T09:16:38.785Z,90.30
2019-02-05T09:19:05.286Z,90.30
2019-02-05T09:21:34.448Z,90.40
2019-02-05T09:24:03.928Z,90.30
2019-02-05T09:26:31.316Z,90.30
2019-02-05T09:28:57.599Z,90.30
2019-02-05T09:31:23.853Z,90.30
2019-02-05T09:33:50.183Z,90.30
2019-02-05T09:36:16.996Z,90.30
2019-02-05T09:38:43.438Z,90.20
2019-02-05T09:41:09.713Z,90.20
2019-02-05T09:43:38.783Z,90.20
2019-02-05T09:46:05.153Z,90.20
2019-02-05T09:48:34.347Z,90.20
2019-02-05T09:51:03.606Z,90.20
2019-02-05T09:53:30.045Z,90.10
2019-02-05T09:56:12.920Z,90.20
2019-02-05T09:58:39.232Z,90.30
2019-02-05T10:01:06.100Z,90.30
2019-02-05T10:03:44.501Z,90.30
2019-02-05T10:06:11.032Z,90.20
2019-02-05T10:08:37.429Z,90.20
2019-02-05T10:11:22.638Z,90.30
2019-02-05T10:13:51.690Z,90.20
2019-02-05T10:16:18.168Z,90.10
2019-02-05T10:18:47.308Z,90.10
2019-02-05T10:21:32.346Z,90.20
2019-02-05T10:23:58.934Z,90.20
2019-02-05T10:26:27.921Z,90.10
2019-02-05T10:28:57.004Z,90.20
2019-02-05T10:31:26.393Z,90.30
2019-02-05T10:33:55.945Z,90.40
2019-02-05T10:36:22.410Z,90.20
2019-02-05T10:38:52.221Z,90.10
2019-02-05T10:41:18.734Z,90.10
2019-02-05T10:43:45.060Z,90.00
2019-02-05T10:46:11.475Z,90.10
2019-02-05T10:48:37.859Z,90.20
2019-02-05T10:51:04.281Z,90.20
2019-02-05T10:53:33.375Z,90.20
2019-02-05T10:55:59.726Z,90.50
2019-02-05T10:58:26.468Z,90.10
2019-02-05T11:00:52.997Z,90.10
2019-02-05T11:03:19.398Z,90.00
2019-02-05T11:06:01.231Z,90.20
2019-02-05T11:08:27.616Z,90.20
2019-02-05T11:10:54.132Z,89.90
2019-02-05T11:13:20.906Z,90.00
2019-02-05T11:15:47.521Z,89.90
2019-02-05T11:18:13.818Z,90.10
2019-02-05T11:20:42.875Z,90.00
2019-02-05T11:23:09.356Z,90.00
2019-02-05T11:25:48.028Z,89.70
2019-02-05T11:28:14.483Z,89.70
2019-02-05T11:30:43.698Z,89.50
2019-02-05T11:33:10.604Z,89.70
2019-02-05T11:35:36.887Z,89.70
2019-02-05T11:38:06.889Z,89.70
2019-02-05T11:40:35.169Z,89.10
2019-02-05T11:43:01.681Z,89.20
2019-02-05T11:45:31.559Z,89.00
2019-02-05T11:48:00.016Z,89.20
2019-02-05T11:50:26.567Z,88.90
2019-02-05T11:52:53.494Z,89.80
2019-02-05T11:55:25.730Z,88.60
2019-02-05T11:57:54.821Z,89.00
2019-02-05T12:00:32.622Z,89.20
2019-02-05T12:02:57.514Z,88.70
2019-02-05T12:05:39.138Z,88.80
2019-02-05T12:08:24.149Z,89.40
2019-02-05T12:11:08.931Z,89.20
2019-02-05T12:13:35.414Z,88.80
2019-02-05T12:16:20.415Z,88.50
2019-02-05T12:18:46.784Z,87.80
2019-02-05T12:21:16.718Z,87.40
2019-02-05T12:23:43.023Z,87.60
2019-02-05T12:26:12.287Z,88.00
2019-02-05T12:28:41.339Z,87.70
2019-02-05T12:31:26.304Z,87.90
2019-02-05T12:33:52.703Z,88.10
2019-02-05T12:36:19.002Z,87.50
2019-02-05T12:38:45.282Z,87.10
2019-02-05T12:41:26.729Z,86.90
2019-02-05T12:43:53.037Z,87.20
2019-02-05T12:46:19.385Z,86.90
2019-02-05T12:48:45.759Z,86.30
2019-02-05T12:51:12.637Z,86.30
2019-02-05T12:53:40.055Z,86.70
2019-02-05T12:56:06.533Z,86.10
2019-02-05T12:58:35.484Z,86.00
2019-02-05T13:01:01.869Z,85.60
2019-02-05T13:03:28.173Z,86.00
2019-02-05T13:05:57.377Z,86.40
2019-02-05T13:08:26.635Z,86.70
2019-02-05T13:10:55.841Z,86.00
2019-02-05T13:13:22.339Z,85.70
2019-02-05T13:15:48.733Z,85.60
2019-02-05T13:18:15.201Z,84.90
2019-02-05T13:20:44.712Z,85.30
2019-02-05T13:23:11.327Z,85.30
2019-02-05T13:25:40.367Z,84.90
2019-02-05T13:28:26.590Z,85.30
2019-02-05T13:30:53.345Z,85.50
2019-02-05T13:33:28.927Z,85.60
2019-02-05T13:35:55.631Z,85.20
2019-02-05T13:38:40.446Z,84.90
2019-02-05T13:41:06.891Z,84.60
2019-02-05T13:43:36.288Z,85.60
2019-02-05T13:46:05.129Z,84.40
2019-02-05T13:48:31.394Z,84.30
2019-02-05T13:50:57.574Z,83.90
2019-02-05T13:53:23.758Z,83.90
2019-02-05T13:56:05.289Z,83.90
2019-02-05T13:58:30.457Z,84.00
2019-02-05T14:00:56.669Z,84.40
2019-02-05T14:03:23.060Z,84.30
2019-02-05T14:05:49.227Z,84.10
2019-02-05T14:08:18.421Z,84.30
2019-02-05T14:11:00.099Z,84.00
2019-02-05T14:13:26.769Z,83.60
2019-02-05T14:15:52.915Z,83.50
2019-02-05T14:18:21.967Z,83.60
2019-02-05T14:20:47.233Z,83.40
2019-02-05T14:23:13.430Z,82.90
2019-02-05T14:25:39.853Z,83.10
2019-02-05T14:28:06.115Z,83.60
2019-02-05T14:30:37.110Z,83.30
2019-02-05T14:33:06.516Z,82.80
2019-02-05T14:35:32.661Z,82.40
2019-02-05T14:38:01.913Z,82.30
2019-02-05T14:40:28.138Z,83.00
2019-02-05T14:42:54.500Z,83.20
2019-02-05T14:45:20.773Z,83.00
2019-02-05T14:47:59.513Z,82.60
2019-02-05T14:50:30.312Z,83.20
2019-02-05T14:53:06.294Z,83.40
2019-02-05T14:55:32.490Z,83.00
2019-02-05T14:57:58.638Z,82.80
2019-02-05T15:00:37.057Z,83.00
2019-02-05T15:03:10.519Z,83.30
2019-02-05T15:05:37.051Z,82.80
2019-02-05T15:08:18.711Z,82.10
2019-02-05T15:10:44.851Z,82.80
2019-02-05T15:13:11.618Z,82.60
2019-02-05T15:15:56.466Z,82.70
2019-02-05T15:18:22.868Z,82.30
2019-02-05T15:20:51.582Z,82.70
2019-02-05T15:23:18.696Z,82.70
2019-02-05T15:25:44.800Z,82.80
2019-02-05T15:28:22.974Z,82.30
2019-02-05T15:30:49.214Z,82.30
2019-02-05T15:33:29.502Z,82.60
2019-02-05T15:35:57.585Z,82.70
2019-02-05T15:38:24.367Z,82.70
2019-02-05T15:41:05.815Z,82.60
2019-02-05T15:43:50.476Z,82.30
2019-02-05T15:46:16.750Z,82.10
2019-02-05T15:48:43.463Z,81.80
2019-02-05T15:51:12.229Z,81.90
2019-02-05T15:53:53.750Z,82.10
2019-02-05T15:56:22.698Z,82.10
2019-02-05T15:58:58.237Z,82.50
2019-02-05T16:01:25.253Z,82.00
2019-02-05T16:03:54.285Z,82.00
2019-02-05T16:06:23.150Z,81.70
2019-02-05T16:08:49.436Z,81.90
2019-02-05T16:11:18.190Z,81.60
2019-02-05T16:13:59.593Z,81.40
2019-02-05T16:16:29.177Z,81.60
2019-02-05T16:19:14.509Z,81.60
2019-02-05T16:21:59.579Z,81.50
2019-02-05T16:24:26.315Z,81.40
2019-02-05T16:26:52.611Z,81.40
2019-02-05T16:29:31.103Z,81.20
2019-02-05T16:31:57.447Z,81.40
2019-02-05T16:34:23.729Z,81.40
2019-02-05T16:36:50.001Z,81.20
2019-02-05T16:39:34.537Z,80.80
2019-02-05T16:42:00.794Z,81.00
2019-02-05T16:44:27.032Z,81.00
2019-02-05T16:46:55.874Z,81.20
2019-02-05T16:49:28.102Z,80.70
2019-02-05T16:51:56.973Z,80.90
2019-02-05T16:54:41.587Z,81.10
2019-02-05T16:57:10.462Z,81.10
2019-02-05T16:59:54.929Z,81.20
2019-02-05T17:02:28.652Z,81.20
2019-02-05T17:05:08.734Z,81.10
2019-02-05T17:07:34.879Z,81.00
2019-02-05T17:10:01.152Z,81.30
2019-02-05T17:12:29.966Z,81.00
2019-02-05T17:15:15.693Z,81.10
2019-02-05T17:17:44.475Z,81.20
2019-02-05T17:20:12.348Z,81.20
2019-02-05T17:22:38.646Z,81.40
2019-02-05T17:25:09.834Z,81.50
2019-02-05T17:27:39.153Z,81.30
2019-02-05T17:30:10.293Z,81.60
2019-02-05T17:32:40.496Z,81.80
2019-02-05T17:35:07.714Z,81.70
2019-02-05T17:37:37.409Z,81.60
2019-02-05T17:40:17.110Z,81.70
2019-02-05T17:42:43.259Z,81.40
2019-02-05T17:45:14.429Z,81.90
2019-02-05T17:47:40.581Z,82.00
2019-02-05T17:50:07.930Z,81.70
2019-02-05T17:52:37.143Z,81.70
2019-02-05T17:55:22.160Z,81.50
2019-02-05T17:57:48.320Z,82.00
2019-02-05T18:00:43.894Z,82.00
2019-02-05T18:03:10.040Z,82.00
2019-02-05T18:05:36.500Z,82.10
2019-02-05T18:08:05.434Z,82.20
2019-02-05T18:10:49.810Z,82.00
2019-02-05T18:13:16.010Z,81.90
2019-02-05T18:15:45.133Z,82.10
2019-02-05T18:18:11.841Z,81.90
2019-02-05T18:20:38.118Z,82.10
2019-02-05T18:23:07.260Z,82.10
2019-02-05T18:25:33.411Z,82.10
2019-02-05T18:28:02.492Z,82.20
2019-02-05T18:30:30.531Z,82.20
2019-02-05T18:33:05.646Z,82.00
2019-02-05T18:35:42.943Z,82.10
2019-02-05T18:38:13.410Z,82.40
2019-02-05T18:40:40.716Z,82.40
2019-02-05T18:43:22.202Z,82.40
2019-02-05T18:46:07.662Z,82.30
2019-02-05T18:48:52.469Z,82.40
2019-02-05T18:51:18.646Z,82.40
2019-02-05T18:53:47.430Z,82.10
2019-02-05T18:56:32.493Z,82.40
2019-02-05T18:59:17.600Z,82.40
2019-02-05T19:02:02.720Z,82.40
2019-02-05T19:04:29.220Z,82.80
2019-02-05T19:07:14.271Z,82.60
2019-02-05T19:09:43.066Z,82.50
2019-02-05T19:12:09.200Z,83.20
2019-02-05T19:14:38.606Z,82.80
2019-02-05T19:17:04.823Z,82.70
2019-02-05T19:19:34.172Z,82.70
2019-02-05T19:22:01.877Z,82.60
2019-02-05T19:24:45.229Z,82.70
2019-02-05T19:27:30.381Z,82.70
2019-02-05T19:29:59.160Z,82.60
2019-02-05T19:32:26.142Z,82.70
2019-02-05T19:34:55.221Z,82.50
2019-02-05T19:37:24.081Z,82.70
2019-02-05T19:39:50.415Z,82.40
2019-02-05T19:42:16.573Z,82.80
2019-02-05T19:44:44.704Z,83.00
2019-02-05T19:47:11.069Z,83.10
2019-02-05T19:49:55.732Z,83.10
2019-02-05T19:52:27.668Z,82.60
2019-02-05T19:54:55.893Z,82.80
2019-02-05T19:57:22.479Z,82.40
2019-02-05T19:59:49.034Z,82.60
2019-02-05T20:02:17.835Z,82.60
2019-02-05T20:04:50.204Z,82.70
2019-02-05T20:07:16.345Z,82.80
2019-02-05T20:09:42.665Z,82.50
2019-02-05T20:12:11.617Z,82.20
2019-02-05T20:14:37.750Z,82.60
2019-02-05T20:17:07.242Z,82.70
2019-02-05T20:19:33.488Z,82.70
2019-02-05T20:22:02.752Z,82.60
2019-02-05T20:24:28.896Z,82.60
2019-02-05T20:27:04.097Z,82.60
2019-02-05T20:29:30.233Z,82.40
2019-02-05T20:32:14.447Z,82.40
2019-02-05T20:34:40.620Z,82.40
2019-02-05T20:37:06.858Z,82.40
2019-02-05T20:39:33.064Z,82.40
2019-02-05T20:41:59.402Z,82.60
2019-02-05T20:44:25.635Z,82.20
2019-02-05T20:46:51.791Z,82.50
2019-02-05T20:49:17.926Z,82.70
2019-02-05T20:51:50.365Z,82.60
2019-02-05T20:54:18.826Z,82.50
2019-02-05T20:57:03.820Z,82.20
2019-02-05T20:59:30.475Z,82.20
2019-02-05T21:01:57.876Z,82.40
2019-02-05T21:04:24.037Z,82.50
2019-02-05T21:06:53.330Z,82.50
2019-02-05T21:09:19.668Z,82.50
2019-02-05T21:11:58.128Z,82.60
2019-02-05T21:14:24.493Z,82.50
2019-02-05T21:16:50.889Z,82.60
2019-02-05T21:19:19.728Z,82.30
2019-02-05T21:21:46.361Z,82.50
2019-02-05T21:24:15.312Z,82.20
2019-02-05T21:26:47.684Z,81.90
2019-02-05T21:29:29.091Z,82.10
2019-02-05T21:31:55.388Z,82.20
2019-02-05T21:34:21.640Z,82.50
2019-02-05T21:36:57.554Z,82.20
2019-02-05T21:39:23.866Z,82.40
2019-02-05T21:41:49.999Z,82.40
2019-02-05T21:44:16.125Z,82.40
2019-02-05T21:46:42.284Z,82.40
2019-02-05T21:49:26.661Z,82.40
2019-02-05T21:51:55.617Z,82.30
2019-02-05T21:54:21.932Z,82.90
2019-02-05T21:56:50.957Z,82.40
2019-02-05T21:59:20.146Z,82.20
2019-02-05T22:01:46.551Z,82.10
2019-02-05T22:04:12.813Z,82.20
2019-02-05T22:06:57.493Z,82.20
2019-02-05T22:09:26.471Z,82.10
2019-02-05T22:11:52.719Z,82.20
2019-02-05T22:14:18.943Z,82.50
2019-02-05T22:16:47.932Z,82.20
2019-02-05T22:19:16.987Z,82.70
2019-02-05T22:21:43.129Z,82.00
2019-02-05T22:24:09.358Z,81.90
2019-02-05T22:26:35.605Z,82.10
2019-02-05T22:29:02.026Z,82.30
2019-02-05T22:31:43.212Z,82.20
2019-02-05T22:34:12.209Z,82.20
2019-02-05T22:36:41.063Z,82.00
2019-02-05T22:39:07.286Z,82.00
2019-02-05T22:41:33.473Z,82.10
2019-02-05T22:43:59.647Z,82.20
2019-02-05T22:46:26.082Z,82.10
2019-02-05T22:48:52.193Z,82.00
2019-02-05T22:51:18.325Z,82.20
2019-02-05T22:53:47.562Z,82.30
2019-02-05T22:56:13.865Z,82.20
2019-02-05T22:58:40.324Z,82.10
2019-02-05T23:01:11.476Z,82.40
2019-02-05T23:03:39.472Z,82.40
2019-02-05T23:06:17.305Z,82.40
2019-02-05T23:08:50.098Z,82.30
2019-02-05T23:11:24.477Z,82.30
2019-02-05T23:14:09.326Z,82.20
2019-02-05T23:16:38.118Z,82.30
2019-02-05T23:19:22.858Z,82.20
2019-02-05T23:21:51.610Z,82.20
2019-02-05T23:24:36.345Z,82.00
2019-02-05T23:27:05.123Z,82.10
2019-02-05T23:29:49.293Z,82.30
2019-02-05T23:32:15.435Z,82.20
2019-02-05T23:34:41.576Z,82.30
2019-02-05T23:37:26.279Z,82.30
2019-02-05T23:39:55.099Z,82.10
2019-02-05T23:42:21.497Z,82.20
2019-02-05T23:44:47.650Z,82.40
2019-02-05T23:47:16.473Z,82.60
2019-02-05T23:49:42.616Z,82.60
2019-02-05T23:52:08.850Z,82.60
2019-02-05T23:54:35.107Z,82.40
2019-02-05T23:57:01.294Z,82.70
2019-02-05T23:59:27.450Z,82.90
